Terminal Aerodrome Forecast
Issued by NWS Quad Cities IA IL

Home | Current Version | Previous Version | Text Only | Print | Product List | Glossary On
Versions: 1 2 3 4 5 6 7 8 9 10 11 12 13 14 15 16 17
000
FTUS43 KDVN 231900 AAB
TAFDBQ
TAF AMD
KDBQ 231901Z 2319/2418 18011KT P6SM VCSH BKN015
     FM232000 18008KT P6SM OVC015
     FM240400 21003KT 5SM BR SCT007
     FM240900 21003KT 1SM BR BKN002
     FM241030 21003KT 1/2SM FG OVC002
     FM241500 19006KT 1 1/2SM BR OVC004
     FM241700 19009KT 6SM BR SCT004=

USA.gov is the U.S. government's official web portal to all federal, state and local government web resources and services.